Ora Direzione Vento Velocita' Vento Media Vento Raffica Max. Temperatura Wind Chill Pioggia Pressione
20:44:48.0225 °(SW)4.9 Kts5.0 Kts15.9 Kts24.9 °C24.9 °C0.0 mm1006.0 Hpa
20:24:33.0248 °(WSW)1.7 Kts2.3 Kts15.9 Kts25.3 °C25.3 °C0.0 mm1006.0 Hpa
20:04:16.0248 °(WSW)2.7 Kts2.1 Kts15.9 Kts25.6 °C25.6 °C0.0 mm1006.1 Hpa
19:43:59.0248 °(WSW)2.1 Kts3.1 Kts15.9 Kts26.0 °C26.0 °C0.0 mm1006.0 Hpa
19:24:46.0248 °(WSW)1.7 Kts2.2 Kts15.9 Kts26.2 °C26.2 °C0.0 mm1005.9 Hpa
19:04:22.0270 °(W)3.7 Kts4.1 Kts15.9 Kts26.4 °C26.4 °C0.0 mm1005.8 Hpa
18:44:01.0225 °(SW)5.1 Kts3.9 Kts15.9 Kts26.8 °C26.8 °C0.0 mm1006.0 Hpa
18:24:47.0270 °(W)5.2 Kts4.6 Kts15.9 Kts27.1 °C27.1 °C0.0 mm1006.0 Hpa
18:04:29.0270 °(W)2.9 Kts5.2 Kts15.9 Kts27.3 °C27.3 °C0.0 mm1006.0 Hpa
17:44:09.0270 °(W)1.9 Kts4.3 Kts15.9 Kts27.6 °C27.6 °C0.0 mm1006.3 Hpa
17:23:47.0202 °(SSW)4.7 Kts5.3 Kts15.9 Kts27.8 °C27.8 °C0.0 mm1006.4 Hpa
17:04:32.0270 °(W)2.5 Kts3.9 Kts15.9 Kts28.1 °C28.1 °C0.0 mm1006.6 Hpa
16:44:11.0248 °(WSW)1.7 Kts5.8 Kts15.9 Kts28.2 °C28.2 °C0.0 mm1006.7 Hpa
16:23:50.0248 °(WSW)6.4 Kts6.4 Kts15.9 Kts28.3 °C28.3 °C0.0 mm1006.7 Hpa
16:04:41.0225 °(SW)6.4 Kts5.4 Kts15.9 Kts28.6 °C28.6 °C0.0 mm1006.7 Hpa
15:44:21.0202 °(SSW)7.8 Kts5.8 Kts15.9 Kts28.8 °C28.8 °C0.0 mm1006.8 Hpa
15:24:04.0180 °(S)4.5 Kts6.8 Kts15.9 Kts28.6 °C28.6 °C0.0 mm1006.8 Hpa
15:03:44.0292 °(WNW)3.5 Kts6.4 Kts15.9 Kts28.9 °C28.9 °C0.0 mm1006.8 Hpa
14:43:45.0180 °(S)8.4 Kts5.3 Kts15.9 Kts28.9 °C28.9 °C0.0 mm1007.0 Hpa
14:23:51.0202 °(SSW)7.8 Kts7.7 Kts15.9 Kts28.8 °C28.8 °C0.0 mm1007.1 Hpa